createdAt,value
2019-05-28T00:02:12.428Z,7.13
2019-05-28T00:04:59.792Z,8.80
2019-05-28T00:07:47.309Z,7.77
2019-05-28T00:10:34.804Z,8.73
2019-05-28T00:13:22.735Z,5.50
2019-05-28T00:16:10.450Z,7.93
2019-05-28T00:18:58.043Z,7.43
2019-05-28T00:21:45.682Z,5.43
2019-05-28T00:24:33.104Z,4.33
2019-05-28T00:27:20.575Z,7.90
2019-05-28T00:30:19.221Z,4.93
2019-05-28T00:32:55.946Z,6.03
2019-05-28T00:35:43.847Z,8.93
2019-05-28T00:38:31.123Z,9.27
2019-05-28T00:41:18.531Z,7.93
2019-05-28T00:44:05.676Z,5.60
2019-05-28T00:46:53.341Z,7.33
2019-05-28T00:49:41.319Z,7.37
2019-05-28T00:52:28.558Z,8.37
2019-05-28T00:55:16.581Z,6.23
2019-05-28T00:58:04.546Z,14.00
2019-05-28T01:00:51.873Z,5.33
2019-05-28T01:03:39.170Z,9.87
2019-05-28T01:06:26.544Z,6.63
2019-05-28T01:09:13.810Z,5.13
2019-05-28T01:12:01.738Z,6.20
2019-05-28T01:14:49.328Z,7.23
2019-05-28T01:17:37.112Z,7.30
2019-05-28T01:20:24.391Z,7.13
2019-05-28T01:23:12.278Z,7.77
2019-05-28T01:25:59.828Z,4.90
2019-05-28T01:28:47.375Z,6.63
2019-05-28T01:31:34.753Z,4.23
2019-05-28T01:34:22.142Z,3.83
2019-05-28T01:37:10.195Z,7.70
2019-05-28T01:40:05.490Z,6.70
2019-05-28T01:42:53.062Z,6.33
2019-05-28T01:45:40.938Z,5.23
2019-05-28T01:48:28.826Z,7.67
2019-05-28T01:51:16.138Z,6.07
2019-05-28T01:54:04.184Z,9.03
2019-05-28T01:56:51.502Z,7.93
2019-05-28T01:59:38.924Z,6.93
2019-05-28T02:02:26.306Z,8.03
2019-05-28T02:05:13.794Z,9.63
2019-05-28T02:08:01.708Z,5.43
2019-05-28T02:10:48.986Z,5.97
2019-05-28T02:13:36.941Z,5.37
2019-05-28T02:16:24.800Z,11.27
2019-05-28T02:19:11.992Z,8.30
2019-05-28T02:21:59.264Z,6.63
2019-05-28T02:24:46.896Z,8.97
2019-05-28T02:27:34.210Z,8.57
2019-05-28T02:30:21.593Z,8.30
2019-05-28T02:33:08.936Z,7.17
2019-05-28T02:35:56.046Z,9.07
2019-05-28T02:38:43.210Z,10.60
2019-05-28T02:41:30.628Z,5.93
2019-05-28T02:44:18.496Z,6.97
2019-05-28T02:47:05.563Z,8.43
2019-05-28T02:49:52.826Z,10.47
2019-05-28T02:52:40.853Z,7.90
2019-05-28T02:55:28.334Z,7.23
2019-05-28T02:58:15.578Z,5.43
2019-05-28T03:01:03.122Z,7.60
2019-05-28T03:03:50.857Z,8.63
2019-05-28T03:06:38.096Z,8.30
2019-05-28T03:09:26.492Z,9.73
2019-05-28T03:12:14.082Z,9.17
2019-05-28T03:15:02.002Z,10.17
2019-05-28T03:17:49.510Z,13.13
2019-05-28T03:20:37.485Z,8.07
2019-05-28T03:23:25.122Z,9.40
2019-05-28T03:26:12.672Z,8.00
2019-05-28T03:28:59.911Z,8.97
2019-05-28T03:32:05.946Z,7.93
2019-05-28T03:34:34.914Z,11.37
2019-05-28T03:37:22.478Z,7.93
2019-05-28T03:40:09.950Z,10.87
2019-05-28T03:42:57.690Z,8.53
2019-05-28T03:45:45.518Z,9.53
2019-05-28T03:48:33.337Z,8.27
2019-05-28T03:51:20.830Z,9.43
2019-05-28T03:54:08.216Z,10.03
2019-05-28T03:56:55.739Z,11.53
2019-05-28T03:59:43.614Z,8.17
2019-05-28T04:02:30.944Z,10.13
2019-05-28T04:05:18.488Z,11.20
2019-05-28T04:08:06.166Z,8.40
2019-05-28T04:10:54.004Z,8.60
2019-05-28T04:13:41.458Z,13.17
2019-05-28T04:16:28.873Z,9.07
2019-05-28T04:19:16.170Z,9.30
2019-05-28T04:22:03.844Z,9.50
2019-05-28T04:24:51.877Z,11.80
2019-05-28T04:27:39.164Z,11.17
2019-05-28T04:30:26.356Z,10.50
2019-05-28T04:33:13.662Z,10.53
2019-05-28T04:36:00.993Z,13.57
2019-05-28T04:38:48.659Z,12.40
2019-05-28T04:41:35.952Z,10.43
2019-05-28T04:44:23.967Z,14.33
2019-05-28T04:47:11.695Z,17.53
2019-05-28T04:49:58.941Z,9.60
2019-05-28T04:52:46.114Z,13.17
2019-05-28T04:55:34.087Z,12.93
2019-05-28T04:58:21.812Z,8.97
2019-05-28T05:01:09.183Z,9.63
2019-05-28T05:03:56.732Z,12.10
2019-05-28T05:06:44.184Z,10.20
2019-05-28T05:09:32.049Z,13.13
2019-05-28T05:12:19.678Z,11.37
2019-05-28T05:15:07.556Z,11.07
2019-05-28T05:17:54.751Z,6.87
2019-05-28T05:20:42.623Z,11.77
2019-05-28T05:23:30.177Z,9.87
2019-05-28T05:26:17.763Z,7.57
2019-05-28T05:29:05.234Z,8.70
2019-05-28T05:31:52.674Z,12.97
2019-05-28T05:34:40.536Z,10.63
2019-05-28T05:37:28.498Z,11.03
2019-05-28T05:40:16.350Z,8.73
2019-05-28T05:43:03.610Z,9.33
2019-05-28T05:45:50.866Z,11.23
2019-05-28T05:48:38.302Z,6.30
2019-05-28T05:51:26.194Z,11.80
2019-05-28T05:54:13.753Z,10.47
2019-05-28T05:57:01.953Z,14.47
2019-05-28T05:59:49.358Z,9.47
2019-05-28T06:02:36.880Z,10.43
2019-05-28T06:05:24.378Z,10.33
2019-05-28T06:08:11.661Z,12.03
2019-05-28T06:10:59.375Z,9.07
2019-05-28T06:13:47.238Z,11.63
2019-05-28T06:16:35.152Z,12.33
2019-05-28T06:19:22.968Z,8.03
2019-05-28T06:22:10.437Z,9.57
2019-05-28T06:24:57.752Z,7.80
2019-05-28T06:27:45.733Z,7.67
2019-05-28T06:30:33.269Z,13.40
2019-05-28T06:33:20.537Z,10.03
2019-05-28T06:36:08.476Z,10.80
2019-05-28T06:38:56.415Z,13.40
2019-05-28T06:41:44.357Z,11.43
2019-05-28T06:44:32.243Z,7.40
2019-05-28T06:47:19.792Z,7.47
2019-05-28T06:50:08.200Z,8.63
2019-05-28T06:52:55.440Z,12.37
2019-05-28T06:55:42.916Z,10.37
2019-05-28T06:58:39.568Z,8.60
2019-05-28T07:01:18.596Z,10.88
2019-05-28T07:04:13.821Z,12.40
2019-05-28T07:06:53.350Z,9.40
2019-05-28T07:09:40.712Z,10.77
2019-05-28T07:12:28.627Z,16.03
2019-05-28T07:15:16.463Z,7.53
2019-05-28T07:18:03.855Z,5.90
2019-05-28T07:20:51.223Z,6.97
2019-05-28T07:23:38.498Z,6.77
2019-05-28T07:26:25.878Z,9.03
2019-05-28T07:29:13.645Z,8.67
2019-05-28T07:32:01.102Z,7.83
2019-05-28T07:34:48.421Z,9.83
2019-05-28T07:37:36.251Z,11.57
2019-05-28T07:40:31.781Z,7.57
2019-05-28T07:43:11.673Z,8.80
2019-05-28T07:45:58.954Z,9.10
2019-05-28T07:48:46.127Z,8.90
2019-05-28T07:51:33.970Z,8.27
2019-05-28T07:54:21.446Z,6.07
2019-05-28T07:57:09.304Z,8.30
2019-05-28T07:59:57.338Z,8.70
2019-05-28T08:02:45.190Z,8.67
2019-05-28T08:05:32.641Z,6.60
2019-05-28T08:08:20.946Z,6.90
2019-05-28T08:11:08.974Z,6.80
2019-05-28T08:13:56.852Z,9.47
2019-05-28T08:16:52.249Z,7.37
2019-05-28T08:19:32.297Z,7.23
2019-05-28T08:22:19.800Z,5.17
2019-05-28T08:25:22.170Z,6.53
2019-05-28T08:27:55.615Z,7.20
2019-05-28T08:30:42.974Z,5.70
2019-05-28T08:33:30.205Z,6.93
2019-05-28T08:36:18.034Z,6.23
2019-05-28T08:39:07.339Z,7.28
2019-05-28T08:41:54.972Z,7.97
2019-05-28T08:44:42.994Z,5.70
2019-05-28T08:47:30.762Z,7.53
2019-05-28T08:50:33.064Z,6.20
2019-05-28T08:53:05.957Z,5.67
2019-05-28T08:55:53.742Z,6.17
2019-05-28T08:58:41.013Z,6.40
2019-05-28T09:01:28.934Z,8.38
2019-05-28T09:04:17.004Z,5.58
2019-05-28T09:07:04.772Z,4.12
2019-05-28T09:09:52.119Z,8.40
2019-05-28T09:12:39.962Z,6.00
2019-05-28T09:15:27.809Z,10.03
2019-05-28T09:18:15.268Z,5.85
2019-05-28T09:21:03.211Z,8.15
2019-05-28T09:23:50.439Z,3.90
2019-05-28T09:26:37.700Z,8.25
2019-05-28T09:29:24.964Z,10.63
2019-05-28T09:32:12.506Z,6.78
2019-05-28T09:35:02.703Z,6.47
2019-05-28T09:37:47.875Z,8.17
2019-05-28T09:40:49.344Z,10.78
2019-05-28T09:43:22.663Z,5.95
2019-05-28T09:46:10.300Z,5.60
2019-05-28T09:48:58.081Z,4.07
2019-05-28T09:51:45.421Z,6.70
2019-05-28T09:54:33.050Z,7.03
2019-05-28T09:57:20.404Z,4.73
2019-05-28T10:00:08.621Z,4.40
2019-05-28T10:02:56.214Z,6.93
2019-05-28T10:05:58.204Z,4.20
2019-05-28T10:08:31.362Z,6.67
2019-05-28T10:11:18.893Z,6.03
2019-05-28T10:14:06.683Z,3.73
2019-05-28T10:16:54.323Z,4.73
2019-05-28T10:19:42.345Z,2.90
2019-05-28T10:22:29.674Z,4.90
2019-05-28T10:25:17.281Z,3.90
2019-05-28T10:28:05.300Z,3.90
2019-05-28T10:30:53.036Z,4.27
2019-05-28T10:33:40.126Z,5.03
2019-05-28T10:36:36.038Z,4.53
2019-05-28T10:39:15.544Z,5.90
2019-05-28T10:42:02.884Z,6.27
2019-05-28T10:44:50.471Z,2.57
2019-05-28T10:47:38.387Z,3.83
2019-05-28T10:50:25.810Z,7.07
2019-05-28T10:53:13.656Z,3.17
2019-05-28T10:56:01.455Z,5.13
2019-05-28T10:58:48.880Z,4.83
2019-05-28T11:01:36.448Z,3.27
2019-05-28T11:04:24.377Z,3.83
2019-05-28T11:07:12.014Z,4.57
2019-05-28T11:09:59.817Z,3.90
2019-05-28T11:12:47.428Z,2.77
2019-05-28T11:15:35.124Z,5.47
2019-05-28T11:18:22.715Z,3.87
2019-05-28T11:21:10.277Z,3.75
2019-05-28T11:23:57.735Z,3.25
2019-05-28T11:26:45.004Z,5.03
2019-05-28T11:29:32.509Z,6.35
2019-05-28T11:32:20.041Z,4.87
2019-05-28T11:35:07.732Z,4.05
2019-05-28T11:37:55.254Z,3.92
2019-05-28T11:40:42.497Z,3.42
2019-05-28T11:43:30.357Z,5.42
2019-05-28T11:46:18.056Z,3.25
2019-05-28T11:49:06.043Z,5.00
2019-05-28T11:51:53.624Z,5.10
2019-05-28T11:54:41.509Z,3.65
2019-05-28T11:57:29.074Z,5.72
2019-05-28T12:00:16.785Z,3.62
2019-05-28T12:03:04.078Z,3.02
2019-05-28T12:05:51.875Z,3.85
2019-05-28T12:08:39.821Z,2.30
2019-05-28T12:11:27.745Z,4.87
2019-05-28T12:14:15.758Z,4.17
2019-05-28T12:17:03.202Z,3.02
2019-05-28T12:19:50.628Z,4.42
2019-05-28T12:22:38.026Z,8.13
2019-05-28T12:25:25.228Z,4.37
2019-05-28T12:28:12.772Z,2.05
2019-05-28T12:31:00.543Z,2.62
2019-05-28T12:33:47.870Z,3.35
2019-05-28T12:36:35.135Z,5.97
2019-05-28T12:39:23.123Z,7.65
2019-05-28T12:42:10.401Z,2.90
2019-05-28T12:45:09.396Z,2.90
2019-05-28T12:48:07.012Z,3.27
2019-05-28T12:50:33.650Z,3.63
2019-05-28T12:53:21.472Z,2.07
2019-05-28T12:56:08.745Z,3.13
2019-05-28T12:58:56.222Z,2.03
2019-05-28T13:01:44.194Z,2.20
2019-05-28T13:04:32.148Z,2.27
2019-05-28T13:07:19.460Z,3.50
2019-05-28T13:10:07.418Z,3.80
2019-05-28T13:12:55.298Z,2.90
2019-05-28T13:15:42.915Z,3.73
2019-05-28T13:18:29.493Z,2.03
2019-05-28T13:21:17.356Z,3.57
2019-05-28T13:24:05.275Z,3.50
2019-05-28T13:26:52.595Z,2.63
2019-05-28T13:29:40.163Z,4.20
2019-05-28T13:32:27.412Z,3.63
2019-05-28T13:35:14.960Z,3.10
2019-05-28T13:38:02.797Z,2.62
2019-05-28T13:40:50.707Z,4.65
2019-05-28T13:43:37.858Z,3.25
2019-05-28T13:46:25.817Z,1.75
2019-05-28T13:49:13.524Z,2.92
2019-05-28T13:52:11.588Z,2.47
2019-05-28T13:54:48.556Z,2.40
2019-05-28T13:57:39.161Z,4.65
2019-05-28T14:00:23.586Z,2.98
2019-05-28T14:03:11.134Z,8.18
2019-05-28T14:05:58.451Z,4.78
2019-05-28T14:08:47.587Z,3.08
2019-05-28T14:11:33.261Z,3.15
2019-05-28T14:14:21.027Z,2.20
2019-05-28T14:17:08.135Z,1.98
2019-05-28T14:19:56.104Z,1.82
2019-05-28T14:22:43.559Z,4.08
2019-05-28T14:25:31.101Z,4.20
2019-05-28T14:28:18.828Z,1.37
2019-05-28T14:31:06.706Z,4.22
2019-05-28T14:33:54.399Z,3.25
2019-05-28T14:36:41.620Z,2.10
2019-05-28T14:39:40.399Z,1.55
2019-05-28T14:42:17.682Z,1.92
2019-05-28T14:45:05.230Z,2.85
2019-05-28T14:47:52.475Z,2.50
2019-05-28T14:50:42.389Z,2.60
2019-05-28T14:53:29.685Z,6.47
2019-05-28T14:56:17.225Z,3.27
2019-05-28T14:59:04.505Z,2.47
2019-05-28T15:01:51.893Z,2.98
2019-05-28T15:04:39.445Z,2.63
2019-05-28T15:07:27.271Z,2.70
2019-05-28T15:10:14.814Z,2.53
2019-05-28T15:13:02.198Z,7.07
2019-05-28T15:15:49.818Z,3.07
2019-05-28T15:18:37.505Z,5.47
2019-05-28T15:21:25.200Z,3.87
2019-05-28T15:24:13.102Z,3.60
2019-05-28T15:27:00.274Z,3.47
2019-05-28T15:29:48.298Z,2.93
2019-05-28T15:32:35.612Z,5.53
2019-05-28T15:35:23.599Z,2.90
2019-05-28T15:38:11.393Z,5.60
2019-05-28T15:40:58.627Z,3.10
2019-05-28T15:43:46.072Z,2.73
2019-05-28T15:46:34.241Z,1.50
2019-05-28T15:49:21.476Z,3.13
2019-05-28T15:52:09.215Z,3.23
2019-05-28T15:54:56.877Z,2.30
2019-05-28T15:57:43.924Z,3.30
2019-05-28T16:00:31.824Z,3.77
2019-05-28T16:03:19.288Z,4.87
2019-05-28T16:06:06.890Z,2.40
2019-05-28T16:08:54.201Z,2.83
2019-05-28T16:11:41.787Z,6.97
2019-05-28T16:14:29.127Z,3.63
2019-05-28T16:17:16.271Z,3.83
2019-05-28T16:20:03.834Z,2.03
2019-05-28T16:22:51.105Z,4.53
2019-05-28T16:25:41.597Z,2.63
2019-05-28T16:28:25.957Z,4.37
2019-05-28T16:31:13.765Z,2.43
2019-05-28T16:34:00.937Z,3.20
2019-05-28T16:36:48.208Z,3.17
2019-05-28T16:39:36.294Z,2.27
2019-05-28T16:42:24.013Z,4.23
2019-05-28T16:45:11.828Z,4.70
2019-05-28T16:47:59.091Z,3.93
2019-05-28T16:50:46.555Z,5.50
2019-05-28T16:53:34.528Z,2.77
2019-05-28T16:56:22.050Z,4.57
2019-05-28T16:59:09.408Z,4.20
2019-05-28T17:01:56.983Z,2.87
2019-05-28T17:04:44.907Z,2.20
2019-05-28T17:07:32.537Z,3.73
2019-05-28T17:10:32.353Z,4.27
2019-05-28T17:13:08.026Z,4.37
2019-05-28T17:15:55.327Z,6.30
2019-05-28T17:18:42.733Z,3.27
2019-05-28T17:21:29.996Z,3.07
2019-05-28T17:24:17.298Z,2.73
2019-05-28T17:27:04.831Z,5.87
2019-05-28T17:29:52.336Z,2.47
2019-05-28T17:32:39.842Z,4.78
2019-05-28T17:35:27.859Z,4.43
2019-05-28T17:38:15.757Z,2.40
2019-05-28T17:41:03.245Z,6.93
2019-05-28T17:43:51.154Z,4.00
2019-05-28T17:46:38.549Z,5.10
2019-05-28T17:49:25.814Z,4.27
2019-05-28T17:52:13.305Z,4.87
2019-05-28T17:55:00.526Z,3.30
2019-05-28T17:57:48.278Z,5.40
2019-05-28T18:00:35.582Z,4.77
2019-05-28T18:03:23.045Z,3.33
2019-05-28T18:06:10.483Z,3.13
2019-05-28T18:08:57.718Z,2.67
2019-05-28T18:11:45.052Z,5.47
2019-05-28T18:14:33.069Z,6.17
2019-05-28T18:17:21.026Z,3.60
2019-05-28T18:20:08.180Z,3.10
2019-05-28T18:22:55.658Z,4.37
2019-05-28T18:25:42.918Z,3.57
2019-05-28T18:28:30.310Z,4.37
2019-05-28T18:31:18.265Z,5.13
2019-05-28T18:34:05.382Z,5.17
2019-05-28T18:36:52.778Z,2.73
2019-05-28T18:39:40.668Z,2.53
2019-05-28T18:42:27.815Z,2.87
2019-05-28T18:45:15.136Z,2.37
2019-05-28T18:48:02.587Z,3.37
2019-05-28T18:50:50.051Z,6.37
2019-05-28T18:53:37.644Z,6.00
2019-05-28T18:56:24.909Z,2.30
2019-05-28T18:59:12.247Z,2.20
2019-05-28T19:01:59.812Z,5.57
2019-05-28T19:04:47.132Z,5.20
2019-05-28T19:07:35.226Z,4.57
2019-05-28T19:10:22.487Z,3.17
2019-05-28T19:13:09.910Z,3.30
2019-05-28T19:15:57.959Z,3.10
2019-05-28T19:18:45.919Z,2.23
2019-05-28T19:21:33.170Z,4.20
2019-05-28T19:24:20.589Z,5.00
2019-05-28T19:27:08.232Z,5.30
2019-05-28T19:29:55.531Z,1.87
2019-05-28T19:32:43.409Z,2.60
2019-05-28T19:35:30.728Z,3.10
2019-05-28T19:38:18.264Z,2.27
2019-05-28T19:41:05.864Z,1.70
2019-05-28T19:43:53.674Z,1.93
2019-05-28T19:46:41.549Z,2.50
2019-05-28T19:49:29.340Z,3.67
2019-05-28T19:52:16.830Z,2.93
2019-05-28T19:55:04.619Z,3.33
2019-05-28T19:57:51.908Z,3.47
2019-05-28T20:00:39.427Z,2.27
2019-05-28T20:03:27.277Z,4.47
2019-05-28T20:06:14.751Z,4.83
2019-05-28T20:09:02.663Z,2.63
2019-05-28T20:11:50.425Z,5.87
2019-05-28T20:14:37.761Z,2.77
2019-05-28T20:17:25.382Z,1.73
2019-05-28T20:20:12.752Z,4.57
2019-05-28T20:23:00.596Z,3.03
2019-05-28T20:25:51.247Z,2.57
2019-05-28T20:28:35.827Z,2.47
2019-05-28T20:31:23.725Z,2.27
2019-05-28T20:34:11.666Z,4.20
2019-05-28T20:36:59.681Z,5.27
2019-05-28T20:39:47.343Z,5.33
2019-05-28T20:42:35.945Z,2.87
2019-05-28T20:45:22.998Z,3.07
2019-05-28T20:48:10.800Z,5.17
2019-05-28T20:51:07.361Z,6.53
2019-05-28T20:53:45.444Z,4.43
2019-05-28T20:56:33.009Z,2.87
2019-05-28T20:59:20.625Z,6.30
2019-05-28T21:02:10.160Z,4.43
2019-05-28T21:04:58.665Z,3.13
2019-05-28T21:07:45.051Z,9.80
2019-05-28T21:10:33.005Z,4.60
2019-05-28T21:13:20.468Z,4.33
2019-05-28T21:16:07.998Z,2.03
2019-05-28T21:18:55.970Z,3.80
2019-05-28T21:21:43.998Z,2.30
2019-05-28T21:24:31.884Z,3.17
2019-05-28T21:27:19.330Z,6.23
2019-05-28T21:30:06.707Z,2.97
2019-05-28T21:32:54.754Z,4.63
2019-05-28T21:35:42.145Z,2.87
2019-05-28T21:38:29.390Z,2.43
2019-05-28T21:41:17.066Z,2.63
2019-05-28T21:44:04.259Z,3.10
2019-05-28T21:46:52.322Z,3.27
2019-05-28T21:49:39.732Z,3.57
2019-05-28T21:52:27.217Z,3.17
2019-05-28T21:55:15.016Z,4.53
2019-05-28T21:58:04.085Z,3.93
2019-05-28T22:00:57.915Z,2.80
2019-05-28T22:03:45.021Z,2.70
2019-05-28T22:06:32.185Z,2.13
2019-05-28T22:09:19.978Z,2.07
2019-05-28T22:12:08.389Z,1.43
2019-05-28T22:14:55.845Z,2.30
2019-05-28T22:17:42.514Z,1.67
2019-05-28T22:20:29.968Z,1.07
2019-05-28T22:23:17.875Z,3.37
2019-05-28T22:26:05.231Z,1.97
2019-05-28T22:28:53.282Z,3.57
2019-05-28T22:31:40.810Z,2.60
2019-05-28T22:34:28.068Z,4.17
2019-05-28T22:37:16.024Z,1.40
2019-05-28T22:40:03.528Z,1.87
2019-05-28T22:42:50.422Z,3.80
2019-05-28T22:45:42.493Z,4.50
2019-05-28T22:48:25.709Z,3.07
2019-05-28T22:51:13.235Z,2.27
2019-05-28T22:54:01.890Z,4.97
2019-05-28T22:56:48.688Z,3.00
2019-05-28T22:59:36.650Z,1.63
2019-05-28T23:02:24.096Z,2.53
2019-05-28T23:05:11.541Z,1.23
2019-05-28T23:07:59.317Z,3.93
2019-05-28T23:10:46.481Z,1.50
2019-05-28T23:13:46.035Z,3.77
2019-05-28T23:16:21.144Z,2.20
2019-05-28T23:19:08.815Z,2.33
2019-05-28T23:21:56.702Z,5.40
2019-05-28T23:24:44.742Z,2.90
2019-05-28T23:27:32.078Z,3.90
2019-05-28T23:30:24.905Z,2.30
2019-05-28T23:33:12.161Z,5.33
2019-05-28T23:35:54.954Z,3.43
2019-05-28T23:38:42.435Z,1.97
2019-05-28T23:41:30.300Z,3.00
2019-05-28T23:44:18.250Z,1.20
2019-05-28T23:47:06.056Z,2.43
2019-05-28T23:49:53.792Z,2.60
2019-05-28T23:52:41.322Z,3.10
2019-05-28T23:55:29.173Z,2.20
2019-05-28T23:58:16.516Z,2.40
